Weather at Ikaria Airport

Public forecast

Using degrees Celsius for public forecast. Weather courtesy of forecast.io.

Closest aviation weather report (METAR) to Ikaria Airport

Closest report is Samos Airport, 26.8 nm (49.7 km) E. Retrieved 2021/04/17 12:50 UTC (32 minutes ago):

LGSM 171250Z 21007KT 9999 FEW025 23/13 Q1012

Closest aviation forecast (TAF) to Ikaria Airport

Forecast is more than 12 hours old.

Closest forecast is Samos Airport, 26.8 nm (49.7 km) E. Retrieved 2012/09/21 03:06 UTC (9 years ago):

TAF LGSM 210200Z 2103/2115 VRB05KT 9999 FEW020 BECMG 2104/2106 30012KT